sensor_id;sensor_type;location;lat;lon;timestamp;pressure;altitude;pressure_sealevel;temperature;humidity
48790;BME280;41718;51.980;5.734;2023-10-08T00:03:00;102189.84;;;16.67;100.00
48790;BME280;41718;51.980;5.734;2023-10-08T00:08:08;102200.28;;;16.66;100.00
48790;BME280;41718;51.980;5.734;2023-10-08T00:13:16;102181.97;;;16.63;100.00
48790;BME280;41718;51.980;5.734;2023-10-08T00:18:27;102188.00;;;16.59;100.00
48790;BME280;41718;51.980;5.734;2023-10-08T00:23:30;102207.97;;;16.54;100.00
48790;BME280;41718;51.980;5.734;2023-10-08T00:28:33;102212.31;;;16.52;100.00
48790;BME280;41718;51.980;5.734;2023-10-08T00:33:36;102214.88;;;16.46;100.00
48790;BME280;41718;51.980;5.734;2023-10-08T00:38:38;102216.59;;;16.45;100.00
48790;BME280;41718;51.980;5.734;2023-10-08T00:43:45;102216.63;;;16.47;100.00
48790;BME280;41718;51.980;5.734;2023-10-08T00:49:00;102197.38;;;16.40;100.00
48790;BME280;41718;51.980;5.734;2023-10-08T00:54:30;102198.19;;;16.37;100.00
48790;BME280;41718;51.980;5.734;2023-10-08T00:59:34;102190.28;;;16.33;100.00
48790;BME280;41718;51.980;5.734;2023-10-08T01:04:54;102172.00;;;16.31;100.00
48790;BME280;41718;51.980;5.734;2023-10-08T01:09:59;102182.44;;;16.28;100.00
48790;BME280;41718;51.980;5.734;2023-10-08T01:15:07;102171.06;;;16.26;100.00
48790;BME280;41718;51.980;5.734;2023-10-08T01:20:18;102171.84;;;16.21;100.00
48790;BME280;41718;51.980;5.734;2023-10-08T01:25:51;102159.63;;;16.16;100.00
48790;BME280;41718;51.980;5.734;2023-10-08T01:30:55;102170.16;;;16.23;100.00
48790;BME280;41718;51.980;5.734;2023-10-08T01:36:02;102154.44;;;16.20;100.00
48790;BME280;41718;51.980;5.734;2023-10-08T01:41:05;102162.25;;;16.18;100.00
48790;BME280;41718;51.980;5.734;2023-10-08T01:46:12;102169.22;;;16.17;100.00
48790;BME280;41718;51.980;5.734;2023-10-08T01:51:14;102153.56;;;16.17;100.00
48790;BME280;41718;51.980;5.734;2023-10-08T01:56:29;102165.75;;;16.17;100.00
48790;BME280;41718;51.980;5.734;2023-10-08T02:01:35;102176.13;;;16.14;100.00
48790;BME280;41718;51.980;5.734;2023-10-08T02:06:39;102184.84;;;16.16;100.00
48790;BME280;41718;51.980;5.734;2023-10-08T02:11:43;102201.28;;;16.09;100.00
48790;BME280;41718;51.980;5.734;2023-10-08T02:16:45;102209.97;;;16.06;100.00
48790;BME280;41718;51.980;5.734;2023-10-08T02:21:47;102220.41;;;16.06;100.00
48790;BME280;41718;51.980;5.734;2023-10-08T02:26:54;102215.94;;;15.98;100.00
48790;BME280;41718;51.980;5.734;2023-10-08T02:31:58;102207.22;;;15.99;100.00
48790;BME280;41718;51.980;5.734;2023-10-08T02:37:01;102202.84;;;15.95;100.00
48790;BME280;41718;51.980;5.734;2023-10-08T02:42:06;102223.72;;;15.95;100.00
48790;BME280;41718;51.980;5.734;2023-10-08T02:47:15;102186.31;;;15.96;100.00
48790;BME280;41718;51.980;5.734;2023-10-08T02:52:23;102220.25;;;15.94;100.00
48790;BME280;41718;51.980;5.734;2023-10-08T02:57:29;102205.38;;;15.90;100.00
48790;BME280;41718;51.980;5.734;2023-10-08T03:02:31;102184.50;;;15.90;100.00
48790;BME280;41718;51.980;5.734;2023-10-08T03:07:37;102173.19;;;15.91;100.00
48790;BME280;41718;51.980;5.734;2023-10-08T03:12:48;102171.38;;;15.85;100.00
48790;BME280;41718;51.980;5.734;2023-10-08T03:18:02;102171.31;;;15.82;100.00
48790;BME280;41718;51.980;5.734;2023-10-08T03:23:19;102173.97;;;15.84;100.00
48790;BME280;41718;51.980;5.734;2023-10-08T03:28:40;102153.97;;;15.83;100.00
48790;BME280;41718;51.980;5.734;2023-10-08T03:34:00;102146.13;;;15.84;100.00
48790;BME280;41718;51.980;5.734;2023-10-08T03:39:03;102120.00;;;15.81;100.00
48790;BME280;41718;51.980;5.734;2023-10-08T03:44:21;102088.59;;;15.75;100.00
48790;BME280;41718;51.980;5.734;2023-10-08T03:49:26;102085.13;;;15.76;100.00
48790;BME280;41718;51.980;5.734;2023-10-08T03:54:28;102111.03;;;15.64;100.00
48790;BME280;41718;51.980;5.734;2023-10-08T03:59:36;102109.31;;;15.64;100.00
48790;BME280;41718;51.980;5.734;2023-10-08T04:04:43;102091.03;;;15.63;100.00
48790;BME280;41718;51.980;5.734;2023-10-08T04:09:51;102090.16;;;15.62;100.00
48790;BME280;41718;51.980;5.734;2023-10-08T04:15:07;102104.03;;;15.61;100.00
48790;BME280;41718;51.980;5.734;2023-10-08T04:20:14;102102.34;;;15.63;100.00
48790;BME280;41718;51.980;5.734;2023-10-08T04:25:40;102110.13;;;15.62;100.00
48790;BME280;41718;51.980;5.734;2023-10-08T04:30:45;102117.06;;;15.60;100.00
48790;BME280;41718;51.980;5.734;2023-10-08T04:35:46;102113.53;;;15.59;100.00
48790;BME280;41718;51.980;5.734;2023-10-08T04:40:57;102106.56;;;15.57;100.00
48790;BME280;41718;51.980;5.734;2023-10-08T04:46:04;102100.13;;;15.33;100.00
48790;BME280;41718;51.980;5.734;2023-10-08T04:51:10;102081.47;;;15.07;100.00
48790;BME280;41718;51.980;5.734;2023-10-08T04:56:14;102082.22;;;15.00;100.00
48790;BME280;41718;51.980;5.734;2023-10-08T05:01:19;102077.78;;;14.96;100.00
48790;BME280;41718;51.980;5.734;2023-10-08T05:06:42;102071.22;;;14.67;100.00
48790;BME280;41718;51.980;5.734;2023-10-08T05:11:51;102107.63;;;14.64;100.00
48790;BME280;41718;51.980;5.734;2023-10-08T05:16:56;102117.03;;;14.55;100.00
48790;BME280;41718;51.980;5.734;2023-10-08T05:22:17;102124.84;;;14.55;100.00
48790;BME280;41718;51.980;5.734;2023-10-08T05:27:20;102129.78;;;14.43;100.00
48790;BME280;41718;51.980;5.734;2023-10-08T05:32:39;102141.69;;;14.32;100.00
48790;BME280;41718;51.980;5.734;2023-10-08T05:37:59;102165.63;;;14.14;100.00
48790;BME280;41718;51.980;5.734;2023-10-08T05:43:14;102190.22;;;13.89;100.00
48790;BME280;41718;51.980;5.734;2023-10-08T05:48:35;102219.47;;;13.79;100.00
48790;BME280;41718;51.980;5.734;2023-10-08T05:53:46;102215.75;;;13.68;100.00
48790;BME280;41718;51.980;5.734;2023-10-08T05:58:51;102226.16;;;13.68;100.00
48790;BME280;41718;51.980;5.734;2023-10-08T06:04:13;102252.81;;;13.61;100.00
48790;BME280;41718;51.980;5.734;2023-10-08T06:09:43;102300.28;;;13.52;100.00
48790;BME280;41718;51.980;5.734;2023-10-08T06:15:02;102278.22;;;13.38;100.00
48790;BME280;41718;51.980;5.734;2023-10-08T06:20:09;102262.53;;;13.33;100.00
48790;BME280;41718;51.980;5.734;2023-10-08T06:25:11;102316.75;;;13.21;100.00
48790;BME280;41718;51.980;5.734;2023-10-08T06:30:25;102347.88;;;13.19;100.00
48790;BME280;41718;51.980;5.734;2023-10-08T06:35:31;102376.66;;;13.25;100.00
48790;BME280;41718;51.980;5.734;2023-10-08T06:40:37;102387.66;;;13.17;100.00
48790;BME280;41718;51.980;5.734;2023-10-08T06:45:40;102405.53;;;13.06;100.00
48790;BME280;41718;51.980;5.734;2023-10-08T06:50:53;102407.19;;;13.04;100.00
48790;BME280;41718;51.980;5.734;2023-10-08T06:56:09;102423.03;;;13.12;100.00
48790;BME280;41718;51.980;5.734;2023-10-08T07:01:14;102439.31;;;13.06;100.00
48790;BME280;41718;51.980;5.734;2023-10-08T07:06:26;102436.78;;;13.09;100.00
48790;BME280;41718;51.980;5.734;2023-10-08T07:11:34;102455.56;;;12.99;100.00
48790;BME280;41718;51.980;5.734;2023-10-08T07:16:36;102459.06;;;13.01;100.00
48790;BME280;41718;51.980;5.734;2023-10-08T07:21:38;102475.69;;;13.06;100.00
48790;BME280;41718;51.980;5.734;2023-10-08T07:26:45;102480.84;;;13.05;100.00
48790;BME280;41718;51.980;5.734;2023-10-08T07:31:51;102491.97;;;13.00;100.00
48790;BME280;41718;51.980;5.734;2023-10-08T07:36:54;102506.88;;;13.06;100.00
48790;BME280;41718;51.980;5.734;2023-10-08T07:41:56;102508.66;;;13.09;100.00
48790;BME280;41718;51.980;5.734;2023-10-08T07:47:00;102518.41;;;13.16;100.00
48790;BME280;41718;51.980;5.734;2023-10-08T07:52:02;102505.78;;;13.26;100.00
48790;BME280;41718;51.980;5.734;2023-10-08T07:57:06;102512.13;;;13.35;100.00
48790;BME280;41718;51.980;5.734;2023-10-08T08:02:15;102529.09;;;13.52;100.00
48790;BME280;41718;51.980;5.734;2023-10-08T08:07:19;102541.16;;;13.50;100.00
48790;BME280;41718;51.980;5.734;2023-10-08T08:12:21;102563.75;;;13.51;100.00
48790;BME280;41718;51.980;5.734;2023-10-08T08:17:24;102570.88;;;13.58;100.00
48790;BME280;41718;51.980;5.734;2023-10-08T08:22:26;102577.25;;;13.68;100.00
48790;BME280;41718;51.980;5.734;2023-10-08T08:27:33;102592.88;;;13.68;100.00
48790;BME280;41718;51.980;5.734;2023-10-08T08:32:34;102605.06;;;13.70;100.00
48790;BME280;41718;51.980;5.734;2023-10-08T08:37:37;102619.56;;;13.62;100.00
48790;BME280;41718;51.980;5.734;2023-10-08T08:42:44;102609.84;;;13.57;100.00
48790;BME280;41718;51.980;5.734;2023-10-08T08:47:46;102612.38;;;13.55;100.00
48790;BME280;41718;51.980;5.734;2023-10-08T08:52:49;102619.50;;;13.61;100.00
48790;BME280;41718;51.980;5.734;2023-10-08T08:57:53;102629.09;;;13.62;100.00
48790;BME280;41718;51.980;5.734;2023-10-08T09:02:55;102639.38;;;13.59;100.00
48790;BME280;41718;51.980;5.734;2023-10-08T09:07:59;102624.50;;;13.55;100.00
48790;BME280;41718;51.980;5.734;2023-10-08T09:13:06;102617.47;;;13.50;100.00
48790;BME280;41718;51.980;5.734;2023-10-08T09:18:09;102611.84;;;13.65;100.00
48790;BME280;41718;51.980;5.734;2023-10-08T09:23:13;102613.78;;;13.72;100.00
48790;BME280;41718;51.980;5.734;2023-10-08T09:28:15;102631.69;;;13.62;100.00
48790;BME280;41718;51.980;5.734;2023-10-08T09:33:17;102608.13;;;13.57;100.00
48790;BME280;41718;51.980;5.734;2023-10-08T09:38:19;102618.94;;;13.71;100.00
48790;BME280;41718;51.980;5.734;2023-10-08T09:43:25;102618.53;;;13.86;100.00
48790;BME280;41718;51.980;5.734;2023-10-08T09:48:29;102620.94;;;14.08;100.00
48790;BME280;41718;51.980;5.734;2023-10-08T09:53:42;102627.63;;;14.00;100.00
48790;BME280;41718;51.980;5.734;2023-10-08T09:58:46;102635.38;;;13.97;100.00
48790;BME280;41718;51.980;5.734;2023-10-08T10:03:52;102640.22;;;14.15;100.00
48790;BME280;41718;51.980;5.734;2023-10-08T10:08:56;102655.34;;;14.28;100.00
48790;BME280;41718;51.980;5.734;2023-10-08T10:14:04;102661.72;;;14.38;100.00
48790;BME280;41718;51.980;5.734;2023-10-08T10:19:16;102674.41;;;14.55;100.00
48790;BME280;41718;51.980;5.734;2023-10-08T10:24:23;102686.44;;;14.52;100.00
48790;BME280;41718;51.980;5.734;2023-10-08T10:29:31;102697.94;;;14.58;100.00
48790;BME280;41718;51.980;5.734;2023-10-08T10:34:38;102716.84;;;14.83;100.00
48790;BME280;41718;51.980;5.734;2023-10-08T10:39:40;102738.69;;;14.87;100.00
48790;BME280;41718;51.980;5.734;2023-10-08T10:44:43;102749.81;;;14.81;100.00
48790;BME280;41718;51.980;5.734;2023-10-08T10:49:50;102745.31;;;15.07;100.00
48790;BME280;41718;51.980;5.734;2023-10-08T10:54:53;102751.34;;;15.04;100.00
48790;BME280;41718;51.980;5.734;2023-10-08T11:00:03;102766.03;;;15.02;100.00
48790;BME280;41718;51.980;5.734;2023-10-08T11:05:20;102760.94;;;15.07;100.00
48790;BME280;41718;51.980;5.734;2023-10-08T11:10:33;102755.44;;;15.28;100.00
48790;BME280;41718;51.980;5.734;2023-10-08T11:15:35;102742.81;;;15.11;100.00
48790;BME280;41718;51.980;5.734;2023-10-08T11:20:42;102748.53;;;15.30;100.00
48790;BME280;41718;51.980;5.734;2023-10-08T11:25:57;102751.72;;;15.20;100.00
48790;BME280;41718;51.980;5.734;2023-10-08T11:31:05;102745.94;;;15.31;100.00
48790;BME280;41718;51.980;5.734;2023-10-08T11:36:16;102750.06;;;15.22;100.00
48790;BME280;41718;51.980;5.734;2023-10-08T11:41:28;102755.44;;;15.28;100.00
48790;BME280;41718;51.980;5.734;2023-10-08T11:46:46;102731.44;;;15.43;100.00
48790;BME280;41718;51.980;5.734;2023-10-08T11:51:53;102730.38;;;15.34;100.00
48790;BME280;41718;51.980;5.734;2023-10-08T11:57:03;102734.97;;;15.10;100.00
48790;BME280;41718;51.980;5.734;2023-10-08T12:02:07;102727.63;;;15.28;100.00
48790;BME280;41718;51.980;5.734;2023-10-08T12:07:12;102729.97;;;15.19;100.00
48790;BME280;41718;51.980;5.734;2023-10-08T12:12:20;102722.47;;;15.31;100.00
48790;BME280;41718;51.980;5.734;2023-10-08T12:17:24;102703.44;;;15.34;100.00
48790;BME280;41718;51.980;5.734;2023-10-08T12:22:39;102686.34;;;15.47;100.00
48790;BME280;41718;51.980;5.734;2023-10-08T12:27:41;102692.25;;;15.40;100.00
48790;BME280;41718;51.980;5.734;2023-10-08T12:32:43;102666.09;;;15.71;100.00
48790;BME280;41718;51.980;5.734;2023-10-08T12:37:51;102660.97;;;15.76;100.00
48790;BME280;41718;51.980;5.734;2023-10-08T12:43:09;102643.44;;;15.70;100.00
48790;BME280;41718;51.980;5.734;2023-10-08T12:48:14;102640.19;;;16.20;100.00
48790;BME280;41718;51.980;5.734;2023-10-08T12:53:17;102644.03;;;15.96;100.00
48790;BME280;41718;51.980;5.734;2023-10-08T12:58:26;102642.19;;;15.90;100.00
48790;BME280;41718;51.980;5.734;2023-10-08T13:03:31;102624.88;;;15.96;100.00
48790;BME280;41718;51.980;5.734;2023-10-08T13:08:34;102621.72;;;15.71;100.00
48790;BME280;41718;51.980;5.734;2023-10-08T13:13:40;102624.75;;;15.89;100.00
48790;BME280;41718;51.980;5.734;2023-10-08T13:18:42;102604.41;;;15.75;100.00
48790;BME280;41718;51.980;5.734;2023-10-08T13:23:46;102599.31;;;15.81;100.00
48790;BME280;41718;51.980;5.734;2023-10-08T13:28:48;102584.63;;;15.86;100.00
48790;BME280;41718;51.980;5.734;2023-10-08T13:33:53;102566.78;;;15.65;100.00
48790;BME280;41718;51.980;5.734;2023-10-08T13:38:58;102569.09;;;15.90;100.00
48790;BME280;41718;51.980;5.734;2023-10-08T13:43:59;102559.41;;;15.86;100.00
48790;BME280;41718;51.980;5.734;2023-10-08T13:49:08;102564.97;;;16.03;100.00
48790;BME280;41718;51.980;5.734;2023-10-08T13:54:12;102565.09;;;16.09;100.00
48790;BME280;41718;51.980;5.734;2023-10-08T13:59:14;102556.16;;;15.97;100.00
48790;BME280;41718;51.980;5.734;2023-10-08T14:04:21;102575.31;;;15.99;100.00
48790;BME280;41718;51.980;5.734;2023-10-08T14:09:32;102563.88;;;15.90;100.00
48790;BME280;41718;51.980;5.734;2023-10-08T14:14:43;102560.16;;;15.81;100.00
48790;BME280;41718;51.980;5.734;2023-10-08T14:19:54;102543.50;;;15.73;100.00
48790;BME280;41718;51.980;5.734;2023-10-08T14:25:09;102537.31;;;15.69;100.00
48790;BME280;41718;51.980;5.734;2023-10-08T14:30:16;102530.97;;;15.59;100.00
48790;BME280;41718;51.980;5.734;2023-10-08T14:35:25;102520.66;;;15.62;100.00
48790;BME280;41718;51.980;5.734;2023-10-08T14:40:46;102507.88;;;15.76;100.00
48790;BME280;41718;51.980;5.734;2023-10-08T14:46:07;102500.91;;;15.75;100.00
48790;BME280;41718;51.980;5.734;2023-10-08T14:51:11;102488.31;;;15.57;100.00
48790;BME280;41718;51.980;5.734;2023-10-08T14:56:21;102478.19;;;15.71;100.00
48790;BME280;41718;51.980;5.734;2023-10-08T15:06:52;102475.34;;;15.60;100.00
48790;BME280;41718;51.980;5.734;2023-10-08T15:11:54;102471.94;;;15.63;100.00
48790;BME280;41718;51.980;5.734;2023-10-08T15:16:56;102450.16;;;15.61;100.00
48790;BME280;41718;51.980;5.734;2023-10-08T15:21:58;102456.91;;;15.53;100.00
48790;BME280;41718;51.980;5.734;2023-10-08T15:27:00;102448.16;;;15.49;100.00
48790;BME280;41718;51.980;5.734;2023-10-08T15:32:02;102448.19;;;15.51;100.00
48790;BME280;41718;51.980;5.734;2023-10-08T15:37:03;102448.13;;;15.48;100.00
48790;BME280;41718;51.980;5.734;2023-10-08T15:42:05;102449.22;;;15.59;100.00
48790;BME280;41718;51.980;5.734;2023-10-08T15:47:07;102448.16;;;15.49;100.00
48790;BME280;41718;51.980;5.734;2023-10-08T15:52:08;102441.94;;;15.43;100.00
48790;BME280;41718;51.980;5.734;2023-10-08T15:57:10;102432.41;;;15.43;100.00
48790;BME280;41718;51.980;5.734;2023-10-08T16:02:11;102432.97;;;15.30;100.00
48790;BME280;41718;51.980;5.734;2023-10-08T16:07:13;102428.84;;;15.41;100.00
48790;BME280;41718;51.980;5.734;2023-10-08T16:12:15;102420.00;;;15.33;100.00
48790;BME280;41718;51.980;5.734;2023-10-08T16:17:17;102417.50;;;15.37;100.00
48790;BME280;41718;51.980;5.734;2023-10-08T16:22:21;102401.75;;;15.33;100.00
48790;BME280;41718;51.980;5.734;2023-10-08T16:27:23;102403.25;;;15.20;100.00
48790;BME280;41718;51.980;5.734;2023-10-08T16:32:25;102409.03;;;15.07;100.00
48790;BME280;41718;51.980;5.734;2023-10-08T16:37:27;102411.56;;;15.04;100.00
48790;BME280;41718;51.980;5.734;2023-10-08T16:42:29;102401.03;;;14.99;100.00
48790;BME280;41718;51.980;5.734;2023-10-08T16:47:31;102395.59;;;14.89;100.00
48790;BME280;41718;51.980;5.734;2023-10-08T16:52:33;102398.66;;;14.69;100.00
48790;BME280;41718;51.980;5.734;2023-10-08T16:57:35;102395.22;;;14.72;100.00
48790;BME280;41718;51.980;5.734;2023-10-08T17:02:36;102386.09;;;14.53;100.00
48790;BME280;41718;51.980;5.734;2023-10-08T17:07:38;102378.19;;;14.48;100.00
48790;BME280;41718;51.980;5.734;2023-10-08T17:12:40;102370.13;;;14.41;100.00
48790;BME280;41718;51.980;5.734;2023-10-08T17:17:42;102363.13;;;14.38;100.00
48790;BME280;41718;51.980;5.734;2023-10-08T17:22:44;102358.56;;;14.28;100.00
48790;BME280;41718;51.980;5.734;2023-10-08T17:27:46;102359.22;;;14.19;100.00
48790;BME280;41718;51.980;5.734;2023-10-08T17:32:49;102354.78;;;14.15;100.00
48790;BME280;41718;51.980;5.734;2023-10-08T17:37:51;102352.19;;;14.15;100.00
48790;BME280;41718;51.980;5.734;2023-10-08T17:42:54;102337.31;;;14.11;100.00
48790;BME280;41718;51.980;5.734;2023-10-08T17:48:00;102333.66;;;14.03;100.00
48790;BME280;41718;51.980;5.734;2023-10-08T17:53:03;102319.78;;;14.02;100.00
48790;BME280;41718;51.980;5.734;2023-10-08T17:58:06;102306.63;;;13.96;100.00
48790;BME280;41718;51.980;5.734;2023-10-08T18:03:09;102296.81;;;13.86;100.00
48790;BME280;41718;51.980;5.734;2023-10-08T18:08:12;102286.31;;;13.83;100.00
48790;BME280;41718;51.980;5.734;2023-10-08T18:13:14;102273.13;;;13.75;100.00
48790;BME280;41718;51.980;5.734;2023-10-08T18:18:18;102251.19;;;13.64;100.00
48790;BME280;41718;51.980;5.734;2023-10-08T18:23:25;102251.28;;;13.67;100.00
48790;BME280;41718;51.980;5.734;2023-10-08T18:28:26;102258.88;;;13.60;100.00
48790;BME280;41718;51.980;5.734;2023-10-08T18:33:28;102270.19;;;13.62;100.00
48790;BME280;41718;51.980;5.734;2023-10-08T18:38:30;102269.09;;;13.53;100.00
48790;BME280;41718;51.980;5.734;2023-10-08T18:43:32;102263.84;;;13.50;100.00
48790;BME280;41718;51.980;5.734;2023-10-08T18:48:33;102254.97;;;13.44;100.00
48790;BME280;41718;51.980;5.734;2023-10-08T18:53:36;102256.72;;;13.43;100.00
48790;BME280;41718;51.980;5.734;2023-10-08T18:58:38;102254.03;;;13.40;100.00
48790;BME280;41718;51.980;5.734;2023-10-08T19:03:41;102249.59;;;13.36;100.00
48790;BME280;41718;51.980;5.734;2023-10-08T19:08:46;102259.84;;;13.30;100.00
48790;BME280;41718;51.980;5.734;2023-10-08T19:13:48;102249.44;;;13.30;100.00
48790;BME280;41718;51.980;5.734;2023-10-08T19:18:51;102240.44;;;13.19;100.00
48790;BME280;41718;51.980;5.734;2023-10-08T19:23:53;102228.97;;;13.11;100.00
48790;BME280;41718;51.980;5.734;2023-10-08T19:28:55;102218.34;;;13.03;100.00
48790;BME280;41718;51.980;5.734;2023-10-08T19:33:57;102210.56;;;13.03;100.00
48790;BME280;41718;51.980;5.734;2023-10-08T19:38:59;102205.19;;;12.95;100.00
48790;BME280;41718;51.980;5.734;2023-10-08T19:44:02;102194.66;;;12.91;100.00
48790;BME280;41718;51.980;5.734;2023-10-08T19:49:08;102179.72;;;12.82;100.00
48790;BME280;41718;51.980;5.734;2023-10-08T19:54:10;102161.53;;;12.82;100.00
48790;BME280;41718;51.980;5.734;2023-10-08T19:59:12;102167.34;;;12.73;100.00
48790;BME280;41718;51.980;5.734;2023-10-08T20:04:14;102168.09;;;12.69;100.00
48790;BME280;41718;51.980;5.734;2023-10-08T20:09:20;102160.00;;;12.59;100.00
48790;BME280;41718;51.980;5.734;2023-10-08T20:14:23;102149.59;;;12.57;100.00
48790;BME280;41718;51.980;5.734;2023-10-08T20:19:28;102148.63;;;12.54;100.00
48790;BME280;41718;51.980;5.734;2023-10-08T20:24:34;102142.59;;;12.55;100.00
48790;BME280;41718;51.980;5.734;2023-10-08T20:29:37;102131.28;;;12.53;100.00
48790;BME280;41718;51.980;5.734;2023-10-08T20:34:39;102145.13;;;12.53;100.00
48790;BME280;41718;51.980;5.734;2023-10-08T20:39:41;102144.25;;;12.53;100.00
48790;BME280;41718;51.980;5.734;2023-10-08T20:44:44;102136.59;;;12.57;100.00
48790;BME280;41718;51.980;5.734;2023-10-08T20:49:45;102123.28;;;12.45;100.00
48790;BME280;41718;51.980;5.734;2023-10-08T20:54:49;102109.56;;;12.49;100.00
48790;BME280;41718;51.980;5.734;2023-10-08T20:59:50;102098.41;;;12.53;100.00
48790;BME280;41718;51.980;5.734;2023-10-08T21:04:52;102088.25;;;12.61;100.00
48790;BME280;41718;51.980;5.734;2023-10-08T21:09:54;102083.91;;;12.60;100.00
48790;BME280;41718;51.980;5.734;2023-10-08T21:14:56;102071.69;;;12.57;100.00
48790;BME280;41718;51.980;5.734;2023-10-08T21:19:58;102067.19;;;12.50;100.00
48790;BME280;41718;51.980;5.734;2023-10-08T21:24:59;102061.84;;;12.44;100.00
48790;BME280;41718;51.980;5.734;2023-10-08T21:30:01;102063.28;;;12.33;100.00
48790;BME280;41718;51.980;5.734;2023-10-08T21:35:02;102056.16;;;12.26;100.00
48790;BME280;41718;51.980;5.734;2023-10-08T21:40:05;102066.94;;;12.09;100.00
48790;BME280;41718;51.980;5.734;2023-10-08T21:45:11;102043.28;;;11.99;100.00
48790;BME280;41718;51.980;5.734;2023-10-08T21:50:15;102025.59;;;11.85;100.00
48790;BME280;41718;51.980;5.734;2023-10-08T21:55:18;102001.41;;;12.16;100.00
48790;BME280;41718;51.980;5.734;2023-10-08T22:00:21;101992.56;;;12.08;100.00
48790;BME280;41718;51.980;5.734;2023-10-08T22:05:27;101973.91;;;12.23;100.00
48790;BME280;41718;51.980;5.734;2023-10-08T22:10:33;101964.19;;;12.14;100.00
48790;BME280;41718;51.980;5.734;2023-10-08T22:15:36;101936.84;;;12.27;100.00
48790;BME280;41718;51.980;5.734;2023-10-08T22:20:52;101911.00;;;12.32;100.00
48790;BME280;41718;51.980;5.734;2023-10-08T22:25:54;101912.00;;;12.37;100.00
48790;BME280;41718;51.980;5.734;2023-10-08T22:30:56;101900.94;;;12.44;100.00
48790;BME280;41718;51.980;5.734;2023-10-08T22:36:00;101898.69;;;12.25;100.00
48790;BME280;41718;51.980;5.734;2023-10-08T22:41:06;101888.81;;;12.08;100.00
48790;BME280;41718;51.980;5.734;2023-10-08T22:46:09;101881.97;;;12.12;100.00
48790;BME280;41718;51.980;5.734;2023-10-08T22:51:13;101882.19;;;12.21;100.00
48790;BME280;41718;51.980;5.734;2023-10-08T22:56:27;101864.78;;;12.17;100.00
48790;BME280;41718;51.980;5.734;2023-10-08T23:01:29;101858.19;;;12.30;100.00
48790;BME280;41718;51.980;5.734;2023-10-08T23:06:31;101853.22;;;12.39;100.00
48790;BME280;41718;51.980;5.734;2023-10-08T23:11:32;101840.31;;;12.42;100.00
48790;BME280;41718;51.980;5.734;2023-10-08T23:16:36;101833.63;;;12.53;100.00
48790;BME280;41718;51.980;5.734;2023-10-08T23:21:41;101826.97;;;12.64;100.00
48790;BME280;41718;51.980;5.734;2023-10-08T23:26:46;101799.41;;;12.69;100.00
48790;BME280;41718;51.980;5.734;2023-10-08T23:31:47;101775.47;;;12.83;100.00
48790;BME280;41718;51.980;5.734;2023-10-08T23:36:50;101770.16;;;12.78;100.00
48790;BME280;41718;51.980;5.734;2023-10-08T23:41:54;101780.31;;;12.67;100.00
48790;BME280;41718;51.980;5.734;2023-10-08T23:47:12;101754.28;;;12.64;100.00
48790;BME280;41718;51.980;5.734;2023-10-08T23:52:15;101772.06;;;12.46;100.00
48790;BME280;41718;51.980;5.734;2023-10-08T23:57:27;101733.56;;;12.66;100.00
